createdAt,value
2022-10-02T00:01:18.141Z,95875.22
2022-10-02T00:03:46.966Z,95872.59
2022-10-02T00:06:21.367Z,95884.19
2022-10-02T00:08:51.993Z,95880.22
2022-10-02T00:11:23.223Z,95879.19
2022-10-02T00:13:55.766Z,95881.38
2022-10-02T00:16:34.687Z,95892.53
2022-10-02T00:19:04.131Z,95895.78
2022-10-02T00:21:48.985Z,95905.44
2022-10-02T00:24:20.276Z,95904.44
2022-10-02T00:26:57.152Z,95908.34
2022-10-02T00:29:46.916Z,95926.81
2022-10-02T00:32:23.615Z,95915.38
2022-10-02T00:35:21.655Z,95907.00
2022-10-02T00:38:00.155Z,95912.03
2022-10-02T00:40:40.933Z,95915.97
2022-10-02T00:43:23.565Z,95923.16
2022-10-02T00:46:09.438Z,95932.41
2022-10-02T00:48:48.655Z,95935.97
2022-10-02T00:51:47.722Z,95928.25
2022-10-02T00:54:29.179Z,95924.16
2022-10-02T00:57:10.167Z,95922.91
2022-10-02T00:59:55.487Z,95924.16
2022-10-02T01:02:49.134Z,95931.22
2022-10-02T01:05:17.641Z,95930.25
2022-10-02T01:07:51.201Z,95927.69
2022-10-02T01:10:22.272Z,95921.28
2022-10-02T01:12:50.711Z,95928.47
2022-10-02T01:15:20.589Z,95924.03
2022-10-02T01:17:52.062Z,95930.31
2022-10-02T01:20:29.990Z,95940.44
2022-10-02T01:23:05.878Z,95928.94
2022-10-02T01:25:35.137Z,95935.47
2022-10-02T01:28:03.369Z,95939.50
2022-10-02T01:30:32.735Z,95923.28
2022-10-02T01:33:03.397Z,95922.16
2022-10-02T01:35:33.594Z,95918.94
2022-10-02T01:38:06.443Z,95915.06
2022-10-02T01:40:37.279Z,95915.97
2022-10-02T01:43:08.606Z,95925.00
2022-10-02T01:45:51.643Z,95924.53
2022-10-02T01:48:28.283Z,95919.50
2022-10-02T01:51:07.881Z,95918.22
2022-10-02T01:53:45.795Z,95925.13
2022-10-02T01:56:24.051Z,95922.56
2022-10-02T01:59:05.598Z,95920.63
2022-10-02T02:01:45.157Z,95929.75
2022-10-02T02:04:25.957Z,95916.16
2022-10-02T02:07:00.325Z,95930.72
2022-10-02T02:09:38.907Z,95921.41
2022-10-02T02:12:15.733Z,95918.94
2022-10-02T02:14:48.877Z,95919.09
2022-10-02T02:17:24.899Z,95916.69
2022-10-02T02:20:02.233Z,95917.31
2022-10-02T02:22:35.191Z,95929.25
2022-10-02T02:25:08.902Z,95941.38
2022-10-02T02:27:43.105Z,95935.16
2022-10-02T02:30:14.789Z,95937.34
2022-10-02T02:32:48.119Z,95933.34
2022-10-02T02:35:21.677Z,95930.72
2022-10-02T02:37:53.088Z,95932.13
2022-10-02T02:40:24.117Z,95935.78
2022-10-02T02:42:59.819Z,95930.44
2022-10-02T02:45:31.385Z,95930.94
2022-10-02T02:48:04.530Z,95935.81
2022-10-02T02:50:37.303Z,95930.94
2022-10-02T02:53:09.937Z,95929.25
2022-10-02T02:55:45.030Z,95928.53
2022-10-02T02:58:19.870Z,95922.00
2022-10-02T03:00:48.043Z,95924.81
2022-10-02T03:03:16.171Z,95925.44
2022-10-02T03:05:48.218Z,95925.41
2022-10-02T03:08:24.237Z,95923.78
2022-10-02T03:11:05.294Z,95935.38
2022-10-02T03:13:51.085Z,95935.38
2022-10-02T03:16:40.188Z,95927.00
2022-10-02T03:19:25.425Z,95925.56
2022-10-02T03:22:03.619Z,95930.88
2022-10-02T03:24:39.639Z,95928.91
2022-10-02T03:27:11.902Z,95928.91
2022-10-02T03:29:46.275Z,95924.50
2022-10-02T03:32:17.114Z,95923.94
2022-10-02T03:34:45.523Z,95919.47
2022-10-02T03:37:13.830Z,95918.69
2022-10-02T03:39:43.620Z,95918.09
2022-10-02T03:42:13.715Z,95914.66
2022-10-02T03:44:43.959Z,95925.94
2022-10-02T03:47:12.342Z,95925.19
2022-10-02T03:49:40.700Z,95922.66
2022-10-02T03:52:09.004Z,95926.81
2022-10-02T03:54:37.743Z,95918.69
2022-10-02T03:57:08.574Z,95910.16
2022-10-02T03:59:45.725Z,95912.56
2022-10-02T04:02:22.222Z,95909.00
2022-10-02T04:04:55.474Z,95913.00
2022-10-02T04:07:30.323Z,95919.47
2022-10-02T04:10:10.882Z,95913.56
2022-10-02T04:12:43.198Z,95925.84
2022-10-02T04:15:20.779Z,95920.06
2022-10-02T04:17:54.692Z,95916.19
2022-10-02T04:20:31.670Z,95920.53
2022-10-02T04:23:08.038Z,95927.22
2022-10-02T04:25:40.738Z,95921.09
2022-10-02T04:28:14.548Z,95924.91
2022-10-02T04:30:43.853Z,95920.94
2022-10-02T04:33:14.471Z,95916.03
2022-10-02T04:35:54.022Z,95925.69
2022-10-02T04:38:47.197Z,95914.22
2022-10-02T04:41:28.714Z,95919.16
2022-10-02T04:44:11.064Z,95919.47
2022-10-02T04:47:04.488Z,95916.66
2022-10-02T04:49:51.454Z,95913.00
2022-10-02T04:52:36.809Z,95907.72
2022-10-02T04:55:26.174Z,95904.81
2022-10-02T04:58:04.807Z,95919.09
2022-10-02T05:00:38.065Z,95924.44
2022-10-02T05:03:33.587Z,95933.84
2022-10-02T05:06:19.495Z,95922.38
2022-10-02T05:09:08.439Z,95923.13
2022-10-02T05:11:55.305Z,95923.78
2022-10-02T05:14:39.695Z,95930.06
2022-10-02T05:17:17.995Z,95922.91
2022-10-02T05:20:00.226Z,95928.16
2022-10-02T05:22:46.830Z,95919.97
2022-10-02T05:25:31.550Z,95926.19
2022-10-02T05:28:14.121Z,95919.66
2022-10-02T05:30:49.767Z,95911.34
2022-10-02T05:33:48.103Z,95922.22
2022-10-02T05:36:30.403Z,95915.00
2022-10-02T05:39:07.639Z,95910.91
2022-10-02T05:41:45.271Z,95911.72
2022-10-02T05:44:17.627Z,95909.25
2022-10-02T05:46:51.405Z,95914.72
2022-10-02T05:49:22.034Z,95915.00
2022-10-02T05:52:00.122Z,95923.03
2022-10-02T05:54:40.887Z,95924.09
2022-10-02T05:57:17.752Z,95917.81
2022-10-02T05:59:53.450Z,95925.94
2022-10-02T06:02:29.623Z,95913.84
2022-10-02T06:05:04.263Z,95917.09
2022-10-02T06:07:34.911Z,95916.25
2022-10-02T06:10:08.182Z,95924.41
2022-10-02T06:12:42.151Z,95927.72
2022-10-02T06:15:18.836Z,95926.09
2022-10-02T06:17:51.798Z,95919.63
2022-10-02T06:20:25.146Z,95911.25
2022-10-02T06:23:02.632Z,95922.66
2022-10-02T06:25:34.904Z,95926.66
2022-10-02T06:28:12.262Z,95923.78
2022-10-02T06:30:42.832Z,95918.13
2022-10-02T06:33:17.806Z,95924.00
2022-10-02T06:36:00.341Z,95923.13
2022-10-02T06:38:45.118Z,95916.28
2022-10-02T06:41:24.984Z,95926.91
2022-10-02T06:44:12.648Z,95926.06
2022-10-02T06:46:51.700Z,95934.28
2022-10-02T06:49:32.569Z,95935.13
2022-10-02T06:52:12.494Z,95932.03
2022-10-02T06:54:57.215Z,95928.84
2022-10-02T06:57:40.901Z,95931.50
2022-10-02T07:00:12.431Z,95930.66
2022-10-02T07:02:59.846Z,95933.88
2022-10-02T07:05:47.174Z,95925.81
2022-10-02T07:08:30.177Z,95932.34
2022-10-02T07:11:09.847Z,95935.25
2022-10-02T07:13:59.287Z,95939.13
2022-10-02T07:16:48.126Z,95932.00
2022-10-02T07:19:40.791Z,95927.72
2022-10-02T07:22:44.095Z,95924.75
2022-10-02T07:25:37.859Z,95925.06
2022-10-02T07:28:19.874Z,95917.59
2022-10-02T07:30:57.596Z,95912.47
2022-10-02T07:33:34.731Z,95909.63
2022-10-02T07:36:10.506Z,95916.56
2022-10-02T07:39:00.881Z,95903.50
2022-10-02T07:42:00.597Z,95903.09
2022-10-02T07:44:46.374Z,95900.66
2022-10-02T07:47:28.771Z,95889.59
2022-10-02T07:50:01.963Z,95885.13
2022-10-02T07:52:38.006Z,95888.34
2022-10-02T07:55:15.766Z,95896.13
2022-10-02T07:57:52.719Z,95892.41
2022-10-02T08:00:25.243Z,95893.44
2022-10-02T08:02:58.178Z,95888.69
2022-10-02T08:05:30.916Z,95885.81
2022-10-02T08:08:04.849Z,95878.84
2022-10-02T08:10:38.148Z,95875.50
2022-10-02T08:13:14.998Z,95874.97
2022-10-02T08:15:47.177Z,95871.00
2022-10-02T08:18:34.346Z,95879.88
2022-10-02T08:21:04.630Z,95873.19
2022-10-02T08:23:38.879Z,95869.81
2022-10-02T08:26:13.512Z,95863.59
2022-10-02T08:28:48.506Z,95863.31
2022-10-02T08:31:17.547Z,95862.84
2022-10-02T08:33:45.990Z,95860.38
2022-10-02T08:36:48.095Z,95853.25
2022-10-02T08:39:40.702Z,95855.22
2022-10-02T08:42:34.856Z,95843.63
2022-10-02T08:45:36.335Z,95842.97
2022-10-02T08:48:45.383Z,95838.13
2022-10-02T08:51:47.238Z,95834.50
2022-10-02T08:54:51.872Z,95823.56
2022-10-02T08:57:46.119Z,95819.94
2022-10-02T09:00:25.359Z,95809.25
2022-10-02T09:03:34.888Z,95811.34
2022-10-02T09:06:44.267Z,95800.97
2022-10-02T09:09:47.697Z,95812.34
2022-10-02T09:12:58.363Z,95801.75
2022-10-02T09:15:41.806Z,95803.53
2022-10-02T09:18:19.051Z,95799.16
2022-10-02T09:21:29.410Z,95786.03
2022-10-02T09:24:48.447Z,95773.56
2022-10-02T09:27:52.813Z,95783.59
2022-10-02T09:30:27.985Z,95786.06
2022-10-02T09:33:24.157Z,95791.59
2022-10-02T09:36:25.548Z,95791.66
2022-10-02T09:39:40.927Z,95761.16
2022-10-02T09:42:39.686Z,95772.91
2022-10-02T09:45:37.070Z,95761.13
2022-10-02T09:48:31.505Z,95755.78
2022-10-02T09:51:20.770Z,95764.19
2022-10-02T09:54:25.309Z,95767.50
2022-10-02T09:57:33.362Z,95761.09
2022-10-02T10:00:20.766Z,95752.94
2022-10-02T10:03:28.314Z,95759.25
2022-10-02T10:06:27.269Z,95746.19
2022-10-02T10:09:40.680Z,95742.16
2022-10-02T10:12:50.397Z,95731.09
2022-10-02T10:16:05.960Z,95727.50
2022-10-02T10:19:02.959Z,95726.91
2022-10-02T10:21:56.316Z,95725.53
2022-10-02T10:24:46.672Z,95713.59
2022-10-02T10:27:49.336Z,95719.84
2022-10-02T10:30:38.025Z,95723.34
2022-10-02T10:33:39.973Z,95715.94
2022-10-02T10:37:11.623Z,95703.41
2022-10-02T10:40:08.769Z,95714.94
2022-10-02T10:43:14.375Z,95714.69
2022-10-02T10:46:02.752Z,95713.22
2022-10-02T10:48:36.214Z,95725.63
2022-10-02T10:51:19.633Z,95720.88
2022-10-02T10:54:10.306Z,95725.19
2022-10-02T10:56:42.713Z,95733.69
2022-10-02T10:59:38.001Z,95738.00
2022-10-02T11:02:36.282Z,95709.38
2022-10-02T11:05:18.772Z,95708.09
2022-10-02T11:08:07.322Z,95707.50
2022-10-02T11:10:47.438Z,95700.72
2022-10-02T11:13:33.450Z,95710.25
2022-10-02T11:16:30.698Z,95697.91
2022-10-02T11:19:37.827Z,95692.59
2022-10-02T11:22:30.040Z,95675.09
2022-10-02T11:25:13.382Z,95675.41
2022-10-02T11:28:13.331Z,95676.31
2022-10-02T11:30:54.901Z,95685.84
2022-10-02T11:33:41.671Z,95692.84
2022-10-02T11:36:29.822Z,95687.78
2022-10-02T11:39:15.515Z,95687.84
2022-10-02T11:42:21.595Z,95702.94
2022-10-02T11:45:09.545Z,95693.88
2022-10-02T11:47:57.366Z,95703.47
2022-10-02T11:50:42.447Z,95688.38
2022-10-02T11:53:37.888Z,95686.44
2022-10-02T11:56:26.815Z,95687.47
2022-10-02T11:59:07.297Z,95682.91
2022-10-02T12:01:43.067Z,95682.78
2022-10-02T12:04:27.829Z,95659.22
2022-10-02T12:07:22.873Z,95667.81
2022-10-02T12:10:03.664Z,95652.00
2022-10-02T12:12:42.074Z,95660.44
2022-10-02T12:15:22.020Z,95654.66
2022-10-02T12:18:07.949Z,95645.06
2022-10-02T12:21:14.188Z,95651.53
2022-10-02T12:24:08.583Z,95649.81
2022-10-02T12:27:00.196Z,95640.47
2022-10-02T12:29:41.002Z,95650.63
2022-10-02T12:32:22.873Z,95654.28
2022-10-02T12:35:03.671Z,95658.59
2022-10-02T12:37:38.725Z,95648.31
2022-10-02T12:40:18.268Z,95658.06
2022-10-02T12:43:27.838Z,95652.75
2022-10-02T12:46:27.893Z,95659.41
2022-10-02T12:49:20.120Z,95668.13
2022-10-02T12:52:14.158Z,95667.31
2022-10-02T12:55:13.415Z,95670.56
2022-10-02T12:57:56.783Z,95668.81
2022-10-02T13:00:29.207Z,95671.94
2022-10-02T13:03:31.930Z,95683.69
2022-10-02T13:06:26.762Z,95685.19
2022-10-02T13:09:16.842Z,95686.81
2022-10-02T13:12:00.193Z,95687.63
2022-10-02T13:15:02.885Z,95690.31
2022-10-02T13:17:39.437Z,95689.13
2022-10-02T13:20:17.903Z,95679.09
2022-10-02T13:22:55.488Z,95675.72
2022-10-02T13:25:37.216Z,95680.66
2022-10-02T13:28:23.266Z,95680.38
2022-10-02T13:31:02.555Z,95675.00
2022-10-02T13:33:52.854Z,95671.69
2022-10-02T13:36:25.841Z,95667.81
2022-10-02T13:39:20.683Z,95673.97
2022-10-02T13:42:03.545Z,95678.31
2022-10-02T13:44:38.714Z,95677.88
2022-10-02T13:47:25.858Z,95669.63
2022-10-02T13:50:16.766Z,95671.81
2022-10-02T13:52:59.885Z,95680.22
2022-10-02T13:55:30.089Z,95681.53
2022-10-02T13:58:29.769Z,95689.63
2022-10-02T14:01:08.427Z,95698.28
2022-10-02T14:03:50.521Z,95710.19
2022-10-02T14:06:25.536Z,95700.94
2022-10-02T14:09:23.739Z,95701.34
2022-10-02T14:12:09.406Z,95700.53
2022-10-02T14:14:55.509Z,95716.72
2022-10-02T14:17:35.162Z,95698.97
2022-10-02T14:20:23.493Z,95716.47
2022-10-02T14:23:08.781Z,95714.63
2022-10-02T14:25:46.099Z,95711.38
2022-10-02T14:28:28.485Z,95724.56
2022-10-02T14:31:08.866Z,95724.63
2022-10-02T14:34:06.991Z,95716.34
2022-10-02T14:36:47.287Z,95723.56
2022-10-02T14:39:27.130Z,95723.97
2022-10-02T14:42:18.462Z,95711.97
2022-10-02T14:45:07.666Z,95718.56
2022-10-02T14:47:51.155Z,95729.59
2022-10-02T14:50:34.102Z,95729.81
2022-10-02T14:53:16.582Z,95719.03
2022-10-02T14:56:01.909Z,95707.94
2022-10-02T14:58:47.027Z,95703.78
2022-10-02T15:01:22.334Z,95723.69
2022-10-02T15:04:06.955Z,95729.22
2022-10-02T15:06:52.081Z,95705.03
2022-10-02T15:09:26.126Z,95728.03
2022-10-02T15:12:03.061Z,95740.72
2022-10-02T15:14:41.199Z,95743.81
2022-10-02T15:17:32.809Z,95738.72
2022-10-02T15:20:07.342Z,95742.44
2022-10-02T15:22:41.171Z,95748.22
2022-10-02T15:25:18.085Z,95758.06
2022-10-02T15:27:53.543Z,95762.81
2022-10-02T15:30:23.398Z,95762.63
2022-10-02T15:33:16.280Z,95771.03
2022-10-02T15:36:24.578Z,95777.16
2022-10-02T15:39:13.704Z,95776.13
2022-10-02T15:41:47.972Z,95791.28
2022-10-02T15:44:34.269Z,95793.56
2022-10-02T15:47:13.303Z,95785.94
2022-10-02T15:49:59.506Z,95782.47
2022-10-02T15:52:37.765Z,95788.88
2022-10-02T15:55:19.490Z,95788.28
2022-10-02T15:58:05.450Z,95798.31
2022-10-02T16:01:00.805Z,95796.84
2022-10-02T16:03:34.862Z,95800.53
2022-10-02T16:06:13.915Z,95796.25
2022-10-02T16:09:01.521Z,95794.63
2022-10-02T16:11:53.737Z,95799.13
2022-10-02T16:14:32.636Z,95784.03
2022-10-02T16:17:16.834Z,95794.91
2022-10-02T16:20:04.158Z,95803.28
2022-10-02T16:22:45.201Z,95804.53
2022-10-02T16:25:28.918Z,95805.34
2022-10-02T16:28:09.080Z,95810.47
2022-10-02T16:30:58.819Z,95817.22
2022-10-02T16:33:33.752Z,95830.94
2022-10-02T16:36:29.900Z,95835.22
2022-10-02T16:39:14.875Z,95849.94
2022-10-02T16:41:59.757Z,95852.78
2022-10-02T16:44:45.863Z,95857.09
2022-10-02T16:47:25.602Z,95864.44
2022-10-02T16:50:01.091Z,95858.72
2022-10-02T16:52:34.526Z,95861.38
2022-10-02T16:55:12.983Z,95862.41
2022-10-02T16:57:54.991Z,95869.78
2022-10-02T17:00:32.174Z,95877.75
2022-10-02T17:03:10.008Z,95876.94
2022-10-02T17:05:46.195Z,95879.78
2022-10-02T17:08:23.939Z,95884.91
2022-10-02T17:11:05.757Z,95880.22
2022-10-02T17:13:43.228Z,95884.28
2022-10-02T17:16:20.959Z,95900.66
2022-10-02T17:18:55.723Z,95905.97
2022-10-02T17:21:29.781Z,95917.31
2022-10-02T17:24:22.841Z,95922.00
2022-10-02T17:27:01.950Z,95929.72
2022-10-02T17:29:39.195Z,95923.38
2022-10-02T17:32:10.075Z,95918.91
2022-10-02T17:34:49.638Z,95923.22
2022-10-02T17:37:57.017Z,95942.44
2022-10-02T17:40:29.015Z,95940.56
2022-10-02T17:43:03.777Z,95945.88
2022-10-02T17:45:38.874Z,95947.28
2022-10-02T17:48:26.570Z,95948.69
2022-10-02T17:51:51.168Z,95938.53
2022-10-02T17:54:58.071Z,95943.84
2022-10-02T17:57:38.655Z,95929.97
2022-10-02T18:00:14.968Z,95925.50
2022-10-02T18:03:00.957Z,95924.31
2022-10-02T18:05:39.542Z,95927.59
2022-10-02T18:08:26.433Z,95931.25
2022-10-02T18:11:04.407Z,95934.13
2022-10-02T18:13:57.288Z,95937.38
2022-10-02T18:16:37.969Z,95930.25
2022-10-02T18:19:24.883Z,95934.53
2022-10-02T18:22:21.384Z,95924.72
2022-10-02T18:25:16.740Z,95923.50
2022-10-02T18:28:02.439Z,95938.44
2022-10-02T18:30:40.054Z,95945.16
2022-10-02T18:33:34.507Z,95946.41
2022-10-02T18:36:24.889Z,95960.66
2022-10-02T18:39:00.324Z,95965.97
2022-10-02T18:41:59.038Z,95961.91
2022-10-02T18:44:42.875Z,95966.41
2022-10-02T18:47:20.234Z,95971.28
2022-10-02T18:50:23.599Z,95963.88
2022-10-02T18:53:15.669Z,95968.59
2022-10-02T18:56:06.093Z,95978.72
2022-10-02T18:58:50.817Z,95993.66
2022-10-02T19:01:46.851Z,95995.06
2022-10-02T19:04:41.269Z,95988.34
2022-10-02T19:07:16.955Z,95990.97
2022-10-02T19:09:44.643Z,95991.97
2022-10-02T19:12:18.535Z,95999.31
2022-10-02T19:14:47.644Z,96006.22
2022-10-02T19:17:18.811Z,96000.28
2022-10-02T19:19:46.517Z,96002.19
2022-10-02T19:22:21.554Z,95997.84
2022-10-02T19:24:52.630Z,96000.16
2022-10-02T19:27:27.038Z,96015.31
2022-10-02T19:29:59.061Z,96013.28
2022-10-02T19:32:31.531Z,96005.53
2022-10-02T19:35:03.873Z,96015.53
2022-10-02T19:37:32.804Z,96011.13
2022-10-02T19:40:03.031Z,96014.38
2022-10-02T19:42:37.351Z,96021.81
2022-10-02T19:45:09.677Z,96019.38
2022-10-02T19:47:43.076Z,96018.59
2022-10-02T19:50:19.896Z,96020.06
2022-10-02T19:52:54.140Z,96014.75
2022-10-02T19:55:25.006Z,96034.09
2022-10-02T19:57:56.239Z,96025.72
2022-10-02T20:00:25.465Z,96029.63
2022-10-02T20:02:57.286Z,96042.69
2022-10-02T20:05:26.612Z,96046.38
2022-10-02T20:08:03.019Z,96048.84
2022-10-02T20:10:38.157Z,96049.66
2022-10-02T20:13:14.519Z,96044.34
2022-10-02T20:16:06.518Z,96047.19
2022-10-02T20:18:35.003Z,96059.03
2022-10-02T20:21:08.207Z,96064.75
2022-10-02T20:23:41.519Z,96066.38
2022-10-02T20:26:14.681Z,96058.56
2022-10-02T20:28:46.202Z,96080.81
2022-10-02T20:31:21.085Z,96081.25
2022-10-02T20:33:53.653Z,96082.31
2022-10-02T20:36:26.084Z,96075.72
2022-10-02T20:39:00.350Z,96075.34
2022-10-02T20:41:34.067Z,96072.75
2022-10-02T20:44:04.791Z,96081.63
2022-10-02T20:47:08.239Z,96085.88
2022-10-02T20:50:16.827Z,96097.97
2022-10-02T20:53:06.965Z,96103.44
2022-10-02T20:55:42.362Z,96100.41
2022-10-02T20:58:36.174Z,96098.13
2022-10-02T21:01:18.506Z,96094.88
2022-10-02T21:04:10.548Z,96101.91
2022-10-02T21:07:07.766Z,96103.03
2022-10-02T21:10:08.450Z,96094.88
2022-10-02T21:13:02.972Z,96103.44
2022-10-02T21:15:47.755Z,96096.50
2022-10-02T21:18:44.002Z,96092.22
2022-10-02T21:21:40.772Z,96098.19
2022-10-02T21:24:30.395Z,96095.72
2022-10-02T21:27:27.706Z,96096.56
2022-10-02T21:30:04.340Z,96100.41
2022-10-02T21:32:51.178Z,96107.13
2022-10-02T21:35:37.159Z,96107.13
2022-10-02T21:38:35.236Z,96104.66
2022-10-02T21:41:53.775Z,96102.00
2022-10-02T21:45:00.385Z,96105.13
2022-10-02T21:47:55.258Z,96110.41
2022-10-02T21:51:01.509Z,96112.81
2022-10-02T21:54:01.951Z,96131.59
2022-10-02T21:57:05.503Z,96138.56
2022-10-02T22:00:16.647Z,96143.66
2022-10-02T22:03:15.195Z,96157.50
2022-10-02T22:06:16.372Z,96164.06
2022-10-02T22:08:59.265Z,96171.75
2022-10-02T22:11:38.736Z,96173.13
2022-10-02T22:14:11.929Z,96178.84
2022-10-02T22:16:50.799Z,96174.78
2022-10-02T22:19:34.502Z,96179.13
2022-10-02T22:22:14.772Z,96185.59
2022-10-02T22:24:58.383Z,96186.22
2022-10-02T22:27:48.068Z,96185.59
2022-10-02T22:30:25.381Z,96178.44
2022-10-02T22:33:14.013Z,96192.44
2022-10-02T22:36:05.123Z,96196.31
2022-10-02T22:38:36.838Z,96197.66
2022-10-02T22:41:09.790Z,96202.34
2022-10-02T22:43:49.385Z,96195.00
2022-10-02T22:46:25.639Z,96206.84
2022-10-02T22:49:02.052Z,96199.50
2022-10-02T22:51:39.227Z,96211.25
2022-10-02T22:54:19.193Z,96205.81
2022-10-02T22:56:57.933Z,96211.00
2022-10-02T22:59:31.076Z,96221.03
2022-10-02T23:02:07.760Z,96214.53
2022-10-02T23:04:40.248Z,96223.06
2022-10-02T23:07:16.358Z,96228.38
2022-10-02T23:09:50.731Z,96225.22
2022-10-02T23:12:28.127Z,96218.00
2022-10-02T23:15:11.918Z,96226.59
2022-10-02T23:17:47.237Z,96237.56
2022-10-02T23:20:19.842Z,96233.28
2022-10-02T23:22:57.074Z,96234.50
2022-10-02T23:25:32.027Z,96233.81
2022-10-02T23:28:06.080Z,96240.72
2022-10-02T23:30:39.582Z,96234.59
2022-10-02T23:33:21.853Z,96241.28
2022-10-02T23:35:55.063Z,96247.22
2022-10-02T23:38:32.377Z,96246.31
2022-10-02T23:41:23.391Z,96243.59
2022-10-02T23:44:02.005Z,96241.75
2022-10-02T23:46:36.589Z,96237.00
2022-10-02T23:49:05.377Z,96237.47
2022-10-02T23:51:46.164Z,96240.13
2022-10-02T23:54:31.547Z,96246.59
2022-10-02T23:57:29.980Z,96237.09
